Airfield :







YOU CAN JOIN US ON...

 
LOGIN :

Register | Disclaimer

   EN    FR    IT 

 









Legend :    VFR   Marginal VFR   IFR   Intensive IFR   Very Intensive IFR
Visi :
Ceiling :
>= 8 km
>= 3000ft
5 to 8 km
1000 to 3000 ft
1500m to 5 km
500 to 1000 ft
800 to 1500m
200 to 500 ft
< 800m
< 200 ft
Symbols :   Thunderstorms  Fog  Heavy snow  Heavy precipitations  Wind > 20 kt






- Airport Elevation : 100 ft
- IATA code : PSM


KPSM - Portsmouth International at Pease

CURRENT METAR :
  • 090756Z 18006KT 10SM SCT090 OVC150 21/20 A2978 RMK AO2A SLP086 T02120198

EXPIRED METARs :
  • 090656Z 00000KT 10SM OVC085 21/19 A2980 RMK AO2A RAE07 SLP093 P0000 T02050193
  • 090608Z 16006KT 10SM FEW049 BKN060 OVC120 20/19 A2980 RMK AO2A PRESFR SLP093
  • 090556Z 17006KT 10SM -RA FEW049 BKN060 OVC150 21/19 A2982 RMK AO2A RAB42 SLP100 P0001 60001 T02050191 10248 20204 58006
  • 090543Z 00000KT 10SM -RA FEW050 BKN065 OVC150 21/19 A2982 RMK AO2A SLP100

TAF KPSM
Valid from the 09 at 06:00 until the 10 at 06:00 UTC


090540Z 0906/1006 23003KT P6SM BKN100
FM091400 26008KT P6SM VCSH BKN050
FM092200 04007KT P6SM BKN006
KZBW FIR / North America



MET'MAP, your aeronautical weather chart ! - Copyright ORBIFLY December 2007 - Disclaimer

ORBIFLY MET'MAP TEAM :

Programming & Development : Alexandra Zaïnal
Original concept : Baudouin d'Aumeries
Technical & hardware support : Manuel Goepfert
Assistance : Marc-Olivier Méhu




SOURCES & CREDITS :

   NOAA